Terminal Aerodrome Forecast
Issued by NWS Shreveport, LA

Home | Current Version | Previous Version | Text Only | Print | Product List | Glossary On
Versions: 1 2 3 4 5 6 7 8 9 10 11 12 13 14 15 16 17 18 19 20 21 22 23 24 25 26
382
FTUS44 KSHV 211031 AAA
TAFTXK
TAF AMD
KTXK 211031Z 2111/2206 24005KT P6SM SCT006 SCT022 OVC080
      TEMPO 2111/2115 5SM -RA BR OVC006
     FM211500 29006KT P6SM VCSH BKN025
     FM212100 31008KT P6SM BKN025=

USA.gov is the U.S. government's official web portal to all federal, state and local government web resources and services.